Time;durP1;ratioP1;P1;durP2;ratioP2;P2;SDS_P1;SDS_P2;PMS_P1;PMS_P2;Temp;Humidity;BMP_temperature;BMP_pressure;BME280_temperature;BME280_humidity;BME280_pressure;Samples;Min_cycle;Max_cycle;Signal;HPM_P1;HPM_P2
2022/12/23 00:01:14;;;;;;;21.52;11.75;;;9.90;99.90;;;;;;6244091;22;20298;-81
2022/12/23 00:03:40;;;;;;;19.60;12.25;;;9.90;99.90;;;;;;6270271;22;20019;-80
2022/12/23 00:06:10;;;;;;;24.13;12.73;;;9.90;99.90;;;;;;6271742;22;20012;-82
2022/12/23 00:08:36;;;;;;;19.35;11.88;;;9.90;99.90;;;;;;6244825;22;20011;-81
2022/12/23 00:11:04;;;;;;;22.02;13.38;;;9.90;99.90;;;;;;6270317;22;20000;-81
2022/12/23 00:16:15;;;;;;;19.60;11.50;;;9.90;99.90;;;;;;6270034;22;20027;-81
2022/12/23 00:18:41;;;;;;;23.00;12.93;;;9.90;99.90;;;;;;6269786;22;20375;-81
2022/12/23 00:21:10;;;;;;;17.17;10.82;;;9.90;99.90;;;;;;6269690;22;20012;-80
2022/12/23 00:23:38;;;;;;;21.20;12.35;;;9.90;99.90;;;;;;6244063;22;20030;-81
2022/12/23 00:26:04;;;;;;;20.98;12.20;;;9.80;99.90;;;;;;6269550;22;20004;-81
2022/12/23 00:28:31;;;;;;;18.92;13.20;;;9.90;99.90;;;;;;6244133;22;20057;-80
2022/12/23 00:31:01;;;;;;;19.45;12.88;;;9.90;99.90;;;;;;6269700;22;20012;-80
2022/12/23 00:33:28;;;;;;;;;;;9.90;99.90;;;;;;6270381;22;20463;-82
2022/12/23 00:35:54;;;;;;;21.70;11.32;;;9.90;99.90;;;;;;6271562;22;19911;-80
2022/12/23 00:43:52;;;;;;;19.05;12.63;;;9.90;99.90;;;;;;6271439;22;20004;-80
2022/12/23 00:46:18;;;;;;;21.10;13.52;;;9.80;99.90;;;;;;6294908;22;20142;-80
2022/12/23 00:51:27;;;;;;;23.63;14.38;;;9.90;99.90;;;;;;6270593;22;20094;-80
2022/12/23 00:53:53;;;;;;;25.40;14.18;;;9.90;99.90;;;;;;6271434;22;20031;-81
2022/12/23 00:56:19;;;;;;;25.88;14.38;;;9.90;99.90;;;;;;6245059;22;20008;-80
2022/12/23 00:58:44;;;;;;;23.05;14.38;;;9.90;99.90;;;;;;6271694;22;20027;-82
2022/12/23 01:06:39;;;;;;;29.98;17.10;;;9.80;99.90;;;;;;6273314;22;20023;-81
2022/12/23 01:09:04;;;;;;;25.42;16.15;;;9.90;99.90;;;;;;6270609;22;20321;-81
2022/12/23 01:11:30;;;;;;;24.23;15.77;;;9.90;99.90;;;;;;6271515;22;20007;-81
2022/12/23 01:13:57;;;;;;;29.08;17.23;;;9.90;99.90;;;;;;6270999;22;20049;-80
2022/12/23 01:16:23;;;;;;;25.73;15.00;;;9.90;99.90;;;;;;6271661;22;20541;-81
2022/12/23 01:18:48;;;;;;;22.88;16.33;;;9.90;99.90;;;;;;6296823;22;20075;-81
2022/12/23 01:21:14;;;;;;;29.55;15.43;;;9.90;99.90;;;;;;6271141;22;20069;-81
2022/12/23 01:23:40;;;;;;;31.77;18.50;;;9.90;99.90;;;;;;6270732;22;20007;-80
2022/12/23 01:26:06;;;;;;;29.60;16.20;;;9.80;99.90;;;;;;6297386;22;20012;-81
2022/12/23 01:28:33;;;;;;;33.72;17.73;;;9.80;99.90;;;;;;6270892;22;20004;-81
2022/12/23 01:31:01;;;;;;;30.10;16.65;;;9.90;99.90;;;;;;6271376;22;20019;-81
2022/12/23 01:33:27;;;;;;;34.78;18.65;;;9.80;99.90;;;;;;6270481;22;20011;-81
2022/12/23 01:35:59;;;;;;;32.47;18.95;;;9.90;99.90;;;;;;6271118;22;20003;-81
2022/12/23 01:38:24;;;;;;;33.20;17.63;;;9.90;99.90;;;;;;6245032;22;20086;-80
2022/12/23 01:40:50;;;;;;;32.58;17.33;;;9.80;99.90;;;;;;6271213;22;20035;-80
2022/12/23 01:43:18;;;;;;;29.80;16.73;;;9.80;99.90;;;;;;6270729;22;20003;-81
2022/12/23 01:45:44;;;;;;;31.23;17.85;;;9.80;99.90;;;;;;6270863;22;20011;-79
2022/12/23 01:48:16;;;;;;;32.08;18.13;;;9.80;99.90;;;;;;6245635;22;20010;-80
2022/12/23 01:50:48;;;;;;;35.38;20.25;;;9.80;99.90;;;;;;6296957;22;20345;-81
2022/12/23 01:53:16;;;;;;;35.38;19.90;;;9.80;99.90;;;;;;6295162;22;20011;-81
2022/12/23 01:56:10;;;;;;;33.67;17.98;;;9.80;99.90;;;;;;6270904;22;20012;-80
2022/12/23 01:58:52;;;;;;;34.38;18.42;;;9.80;99.90;;;;;;6270971;22;20014;-80
2022/12/23 02:04:04;;;;;;;31.38;16.75;;;9.80;99.90;;;;;;6272199;22;20325;-81
2022/12/23 02:09:30;;;;;;;28.67;17.63;;;9.80;99.90;;;;;;6270190;22;20012;-80
2022/12/23 02:12:17;;;;;;;34.75;16.83;;;9.70;99.90;;;;;;6273116;22;20173;-80
2022/12/23 02:17:43;;;;;;;33.15;17.75;;;9.80;99.90;;;;;;6272087;22;20007;-80
2022/12/23 02:20:27;;;;;;;33.03;17.97;;;9.80;99.90;;;;;;6271035;22;20012;-81
2022/12/23 02:23:11;;;;;;;29.30;15.82;;;9.70;99.90;;;;;;6272528;22;20291;-80
2022/12/23 02:26:03;;;;;;;30.77;16.65;;;9.70;99.90;;;;;;6270650;22;20012;-80
2022/12/23 02:28:29;;;;;;;31.27;17.52;;;9.70;99.90;;;;;;6270548;22;20073;-80
2022/12/23 02:31:08;;;;;;;30.15;15.98;;;9.70;99.90;;;;;;6272564;22;20336;-80
2022/12/23 02:34:00;;;;;;;35.08;18.08;;;9.70;99.90;;;;;;6270313;22;20023;-80
2022/12/23 02:37:03;;;;;;;30.30;15.55;;;9.70;99.90;;;;;;6117867;23;20037;-81
2022/12/23 02:39:49;;;;;;;28.48;15.35;;;9.70;99.90;;;;;;6118718;23;20010;-80
2022/12/23 02:42:18;;;;;;;27.65;15.70;;;9.70;99.90;;;;;;6093903;23;20022;-81
2022/12/23 02:44:57;;;;;;;31.40;16.70;;;9.70;99.90;;;;;;6119087;23;20360;-81
2022/12/23 02:47:28;;;;;;;27.95;15.32;;;9.70;99.90;;;;;;6118734;23;20344;-81
2022/12/23 02:49:58;;;;;;;32.47;16.33;;;9.70;99.90;;;;;;6119215;23;20010;-81
2022/12/23 02:52:32;;;;;;;28.38;16.27;;;9.60;99.90;;;;;;6118317;23;20030;-80
2022/12/23 02:55:05;;;;;;;24.45;14.75;;;9.70;99.90;;;;;;6118813;23;20097;-81
2022/12/23 02:57:36;;;;;;;29.48;16.73;;;9.70;99.90;;;;;;6094279;23;20014;-81
2022/12/23 03:00:03;;;;;;;28.02;16.33;;;9.60;99.90;;;;;;6070549;23;20041;-80
2022/12/23 03:02:34;;;;;;;26.83;15.13;;;9.60;99.90;;;;;;6070199;23;20101;-80
2022/12/23 03:05:00;;;;;;;27.92;15.45;;;9.60;99.90;;;;;;6070445;23;20013;-81
2022/12/23 03:07:40;;;;;;;25.88;15.80;;;9.60;99.90;;;;;;6069468;23;20013;-81
2022/12/23 03:10:21;;;;;;;33.70;18.00;;;9.60;99.90;;;;;;6119051;23;20061;-80
2022/12/23 03:12:55;;;;;;;33.20;18.42;;;9.70;99.90;;;;;;6157804;22;20440;-81
2022/12/23 03:15:42;;;;;;;29.67;17.02;;;9.60;99.90;;;;;;6269251;22;20008;-80
2022/12/23 03:18:25;;;;;;;30.98;16.27;;;9.60;99.90;;;;;;6272300;22;20422;-81
2022/12/23 03:21:02;;;;;;;45.05;21.70;;;9.60;99.90;;;;;;6269666;22;20042;-80
2022/12/23 03:23:40;;;;;;;38.22;18.63;;;9.60;99.90;;;;;;6269804;22;20000;-81
2022/12/23 03:26:21;;;;;;;35.78;17.92;;;9.60;99.90;;;;;;6271727;22;20007;-81
2022/12/23 03:28:53;;;;;;;30.45;16.90;;;9.60;99.90;;;;;;6270644;22;20082;-80
2022/12/23 03:31:23;;;;;;;33.45;16.27;;;9.60;99.90;;;;;;6270294;22;20262;-80
2022/12/23 03:34:07;;;;;;;50.00;19.83;;;9.60;99.90;;;;;;6271941;22;20094;-80
2022/12/23 03:36:50;;;;;;;39.83;17.60;;;9.60;99.90;;;;;;6265817;22;20024;-81
2022/12/23 03:39:19;;;;;;;42.47;18.75;;;9.60;99.90;;;;;;6244267;22;20004;-80
2022/12/23 03:41:52;;;;;;;33.55;16.45;;;9.60;99.90;;;;;;6270067;22;20016;-80
2022/12/23 03:44:25;;;;;;;31.17;15.32;;;9.60;99.90;;;;;;6244953;22;20523;-81
2022/12/23 03:47:19;;;;;;;26.80;12.63;;;9.50;99.90;;;;;;6270489;22;20011;-80
2022/12/23 03:49:57;;;;;;;24.75;12.93;;;9.50;99.90;;;;;;6271071;22;20007;-81
2022/12/23 03:52:37;;;;;;;32.42;13.35;;;9.50;99.90;;;;;;6272352;22;20008;-81
2022/12/23 03:55:06;;;;;;;34.13;15.35;;;9.50;99.90;;;;;;6269950;22;20102;-81
2022/12/23 03:58:03;;;;;;;24.40;13.18;;;9.50;99.90;;;;;;6269403;22;20333;-80
2022/12/23 04:00:34;;;;;;;27.15;12.63;;;9.50;99.90;;;;;;6295525;22;20310;-80
2022/12/23 04:03:09;;;;;;;28.10;14.10;;;9.50;99.90;;;;;;6271982;22;20011;-81
2022/12/23 04:05:40;;;;;;;29.55;14.27;;;9.50;99.90;;;;;;6244113;22;20138;-80
2022/12/23 04:08:14;;;;;;;28.20;13.77;;;9.40;99.90;;;;;;6244873;22;20008;-81
2022/12/23 04:10:41;;;;;;;29.50;15.10;;;9.40;99.90;;;;;;6272281;22;20428;-81
2022/12/23 04:13:06;;;;;;;29.60;13.95;;;9.40;99.90;;;;;;6271342;22;20050;-81
2022/12/23 04:15:32;;;;;;;26.35;14.05;;;9.40;99.90;;;;;;6270423;22;20360;-81
2022/12/23 04:17:58;;;;;;;32.30;15.18;;;9.40;99.90;;;;;;6269555;22;20008;-81
2022/12/23 04:20:24;;;;;;;26.60;13.52;;;9.40;99.90;;;;;;6269352;22;19996;-81
2022/12/23 04:22:50;;;;;;;33.17;14.48;;;9.40;99.90;;;;;;6244460;22;20008;-81
2022/12/23 04:25:17;;;;;;;27.40;14.25;;;9.40;99.90;;;;;;6244154;22;20004;-80
2022/12/23 04:27:42;;;;;;;25.75;12.55;;;9.40;99.90;;;;;;6271544;22;20006;-82
2022/12/23 04:30:10;;;;;;;26.13;12.57;;;9.40;99.90;;;;;;6246074;22;20091;-80
2022/12/23 04:32:36;;;;;;;26.23;11.90;;;9.30;99.90;;;;;;6246231;22;20014;-81
2022/12/23 04:35:03;;;;;;;24.63;12.05;;;9.30;99.90;;;;;;6271890;22;20011;-81
2022/12/23 04:37:28;;;;;;;28.33;12.40;;;9.30;99.90;;;;;;6271374;22;20015;-81
2022/12/23 04:39:54;;;;;;;26.08;11.68;;;9.30;99.90;;;;;;6271792;22;20305;-81
2022/12/23 04:42:20;;;;;;;22.02;10.05;;;9.30;99.90;;;;;;6245973;22;20087;-81
2022/12/23 04:44:45;;;;;;;18.80;8.82;;;9.30;99.90;;;;;;6246527;22;20007;-81
2022/12/23 04:47:11;;;;;;;19.77;9.98;;;9.20;99.90;;;;;;6296679;22;20026;-81
2022/12/23 04:49:37;;;;;;;21.77;10.82;;;9.30;99.90;;;;;;6297920;22;20011;-81
2022/12/23 04:52:02;;;;;;;21.10;9.80;;;9.20;99.90;;;;;;6271620;22;20007;-80
2022/12/23 04:54:28;;;;;;;27.13;11.70;;;9.20;99.90;;;;;;6271025;22;20016;-80
2022/12/23 04:56:53;;;;;;;18.80;9.18;;;9.20;99.90;;;;;;6271958;22;20062;-80
2022/12/23 04:59:19;;;;;;;18.55;9.05;;;9.20;99.90;;;;;;6296864;22;20000;-81
2022/12/23 05:01:45;;;;;;;15.48;8.27;;;9.20;99.90;;;;;;6272574;22;20039;-80
2022/12/23 05:04:12;;;;;;;16.27;7.38;;;9.10;99.90;;;;;;6271236;22;20080;-80
2022/12/23 05:06:37;;;;;;;18.80;8.65;;;9.10;99.90;;;;;;6297386;22;20082;-80
2022/12/23 05:09:03;;;;;;;15.05;7.30;;;9.10;99.90;;;;;;6271949;22;20046;-81
2022/12/23 05:11:29;;;;;;;15.98;7.13;;;9.10;99.90;;;;;;6296993;22;20078;-82
2022/12/23 05:13:55;;;;;;;14.35;6.53;;;9.10;99.90;;;;;;6271363;22;20464;-81
2022/12/23 05:16:20;;;;;;;14.52;6.70;;;9.10;99.90;;;;;;6272113;22;20065;-81
2022/12/23 05:18:46;;;;;;;12.75;8.00;;;9.10;99.90;;;;;;6273301;22;20391;-80
2022/12/23 05:21:12;;;;;;;16.50;8.05;;;9.00;99.90;;;;;;6297056;22;20022;-80
2022/12/23 05:23:38;;;;;;;16.48;8.25;;;9.00;99.90;;;;;;6271355;22;20042;-81
2022/12/23 05:26:04;;;;;;;17.45;8.90;;;9.10;99.90;;;;;;6297218;22;20065;-81
2022/12/23 05:28:30;;;;;;;13.25;7.18;;;9.10;99.90;;;;;;6271029;22;20007;-80
2022/12/23 05:31:06;;;;;;;16.95;7.68;;;9.10;99.90;;;;;;6270467;22;20042;-81
2022/12/23 05:33:33;;;;;;;18.17;8.15;;;9.10;99.90;;;;;;6272941;22;20026;-81
2022/12/23 05:35:59;;;;;;;18.48;9.70;;;9.00;99.90;;;;;;6296987;22;20038;-82
2022/12/23 05:38:26;;;;;;;16.33;8.45;;;9.00;99.90;;;;;;6296049;22;20352;-81
2022/12/23 05:40:52;;;;;;;18.38;9.95;;;9.00;99.90;;;;;;6297285;22;20432;-81
2022/12/23 05:43:18;;;;;;;18.60;8.85;;;9.00;99.90;;;;;;6271054;22;20012;-81
2022/12/23 05:45:44;;;;;;;15.43;8.38;;;9.00;99.90;;;;;;6296345;22;20003;-81
2022/12/23 05:48:10;;;;;;;23.85;10.93;;;9.10;99.90;;;;;;6297159;22;20011;-81
2022/12/23 05:50:37;;;;;;;19.40;9.50;;;9.00;99.90;;;;;;6297177;22;20011;-81
2022/12/23 05:53:03;;;;;;;20.83;10.38;;;9.10;99.90;;;;;;6297210;22;20007;-81
2022/12/23 05:55:29;;;;;;;19.50;10.25;;;9.00;99.90;;;;;;6272401;22;20016;-81
2022/12/23 05:57:55;;;;;;;21.10;11.35;;;9.00;99.90;;;;;;6271414;22;20412;-82
2022/12/23 06:00:21;;;;;;;20.75;10.60;;;9.00;99.90;;;;;;6272597;22;20012;-82
2022/12/23 06:02:46;;;;;;;16.77;7.85;;;9.00;99.90;;;;;;6271907;22;20110;-81
2022/12/23 06:05:12;;;;;;;22.67;9.55;;;9.00;99.90;;;;;;6270859;22;20043;-82
2022/12/23 06:07:39;;;;;;;20.23;11.20;;;9.00;99.90;;;;;;6272657;22;20433;-81
2022/12/23 06:10:07;;;;;;;19.55;9.77;;;9.00;99.90;;;;;;6273220;22;20051;-81
2022/12/23 06:12:32;;;;;;;19.95;9.00;;;9.00;99.90;;;;;;6270833;22;20011;-82
2022/12/23 06:14:58;;;;;;;13.45;6.55;;;9.00;99.90;;;;;;6270333;22;20061;-82
2022/12/23 06:17:24;;;;;;;11.82;5.75;;;9.00;99.90;;;;;;6296822;22;20461;-82
2022/12/23 06:19:49;;;;;;;10.88;5.55;;;9.00;99.90;;;;;;6297371;22;20014;-82
2022/12/23 06:22:16;;;;;;;14.32;7.03;;;9.00;99.90;;;;;;6270785;22;20047;-82
2022/12/23 06:24:43;;;;;;;14.45;6.63;;;9.00;99.90;;;;;;6271773;22;20079;-82
2022/12/23 06:27:08;;;;;;;15.38;6.15;;;9.00;99.90;;;;;;6272536;22;20007;-82
2022/12/23 06:29:35;;;;;;;13.70;6.60;;;8.90;99.90;;;;;;6296050;22;20014;-82
2022/12/23 06:32:01;;;;;;;18.83;9.60;;;8.90;99.90;;;;;;6271238;22;20004;-81
2022/12/23 06:34:29;;;;;;;18.85;9.88;;;8.90;99.90;;;;;;6270443;22;20018;-81
2022/12/23 06:36:55;;;;;;;16.40;8.77;;;8.90;99.90;;;;;;6296297;22;20008;-82
2022/12/23 06:39:20;;;;;;;12.27;5.45;;;8.90;99.90;;;;;;6296806;22;20309;-82
2022/12/23 06:41:46;;;;;;;14.68;6.82;;;8.80;99.90;;;;;;6270819;22;20061;-82
2022/12/23 06:44:12;;;;;;;15.32;7.30;;;8.80;99.90;;;;;;6296094;22;20003;-82
2022/12/23 06:46:37;;;;;;;13.10;6.32;;;8.90;99.90;;;;;;6269934;22;20340;-82
2022/12/23 06:49:03;;;;;;;11.68;5.75;;;8.80;99.90;;;;;;6297186;22;20451;-88
2022/12/23 06:51:29;;;;;;;9.88;4.40;;;8.80;99.90;;;;;;6269264;22;20432;-88
2022/12/23 06:53:54;;;;;;;9.23;5.25;;;8.80;99.90;;;;;;6297278;22;20042;-88
2022/12/23 06:56:20;;;;;;;9.93;5.07;;;8.80;99.90;;;;;;6297460;22;20340;-86
2022/12/23 06:58:46;;;;;;;17.95;8.45;;;8.80;99.90;;;;;;6272688;22;20007;-88
2022/12/23 07:01:12;;;;;;;15.18;8.25;;;8.80;99.90;;;;;;6297451;22;20375;-87
2022/12/23 07:03:37;;;;;;;13.48;7.20;;;8.80;99.90;;;;;;6297589;22;20470;-86
2022/12/23 07:06:03;;;;;;;13.25;6.88;;;8.70;99.90;;;;;;6271061;22;20003;-88
2022/12/23 07:08:29;;;;;;;14.10;6.95;;;8.80;99.90;;;;;;6271349;22;20474;-87
2022/12/23 07:10:59;;;;;;;12.85;6.57;;;8.80;99.90;;;;;;6273210;22;20010;-88
2022/12/23 07:13:25;;;;;;;14.52;8.60;;;8.80;99.90;;;;;;6296132;22;20004;-87
2022/12/23 07:15:52;;;;;;;13.40;8.00;;;8.70;99.90;;;;;;6271522;22;20037;-88
2022/12/23 07:18:20;;;;;;;17.58;9.70;;;8.70;99.90;;;;;;6271501;22;20015;-87
2022/12/23 07:20:45;;;;;;;15.48;8.48;;;8.70;99.90;;;;;;6270935;22;20015;-86
2022/12/23 07:23:11;;;;;;;12.80;7.80;;;8.70;99.90;;;;;;6272574;22;20478;-87
2022/12/23 07:25:36;;;;;;;12.52;7.00;;;8.70;99.90;;;;;;6297110;22;20223;-87
2022/12/23 07:28:02;;;;;;;14.57;7.57;;;8.70;99.90;;;;;;6297185;22;20000;-88
2022/12/23 07:30:28;;;;;;;15.30;8.07;;;8.70;99.90;;;;;;6270922;22;20007;-87
2022/12/23 07:32:54;;;;;;;13.63;6.60;;;8.70;99.90;;;;;;6297083;22;20234;-87
2022/12/23 07:35:19;;;;;;;10.45;5.60;;;8.70;99.90;;;;;;6270476;22;20094;-89
2022/12/23 07:37:49;;;;;;;9.98;5.68;;;8.70;99.90;;;;;;6272758;22;20003;-86
2022/12/23 07:40:15;;;;;;;12.43;5.80;;;8.70;99.90;;;;;;6270452;22;20007;-88
2022/12/23 07:42:40;;;;;;;10.98;5.45;;;8.70;99.90;;;;;;6269621;22;20026;-88
2022/12/23 07:45:06;;;;;;;8.98;4.82;;;8.70;99.90;;;;;;6269716;22;20092;-87
2022/12/23 07:47:32;;;;;;;12.25;6.00;;;8.70;99.90;;;;;;6294643;22;20440;-88
2022/12/23 07:49:58;;;;;;;10.20;4.80;;;8.70;99.90;;;;;;6271478;22;20031;-87
2022/12/23 07:52:23;;;;;;;9.15;4.53;;;8.60;99.90;;;;;;6269849;22;20310;-88
2022/12/23 07:54:49;;;;;;;7.38;3.30;;;8.60;99.90;;;;;;6295803;22;20024;-88
2022/12/23 07:57:15;;;;;;;9.93;5.25;;;8.60;99.90;;;;;;6294166;22;20004;-87
2022/12/23 07:59:40;;;;;;;12.13;5.75;;;8.60;99.90;;;;;;6295255;22;20003;-87
2022/12/23 08:02:07;;;;;;;11.82;5.55;;;8.70;99.90;;;;;;6296408;22;20020;-86
2022/12/23 08:04:33;;;;;;;13.77;6.55;;;8.70;99.90;;;;;;6296246;22;20014;-88
2022/12/23 08:06:58;;;;;;;13.57;6.78;;;8.70;99.90;;;;;;6297218;22;20035;-87
2022/12/23 08:09:24;;;;;;;13.32;7.07;;;8.70;99.90;;;;;;6296785;22;20006;-88
2022/12/23 08:11:50;;;;;;;11.25;5.75;;;8.70;99.90;;;;;;6272337;22;20152;-87
2022/12/23 08:14:16;;;;;;;11.25;5.25;;;8.70;99.90;;;;;;6296943;22;20018;-88
2022/12/23 08:16:41;;;;;;;12.50;6.07;;;8.70;99.90;;;;;;6296951;22;20304;-85
2022/12/23 08:19:07;;;;;;;9.38;5.45;;;8.70;99.90;;;;;;6296933;22;20015;-87
2022/12/23 08:21:33;;;;;;;11.98;5.82;;;8.70;99.90;;;;;;6270923;22;20020;-88
2022/12/23 08:23:58;;;;;;;14.13;7.10;;;8.70;99.90;;;;;;6272737;22;20014;-88
2022/12/23 08:26:24;;;;;;;10.55;5.22;;;8.70;99.90;;;;;;6269660;22;20007;-87
2022/12/23 08:28:52;;;;;;;8.98;3.83;;;8.70;99.90;;;;;;6297412;22;20427;-87
2022/12/23 08:31:21;;;;;;;9.73;4.75;;;8.70;99.90;;;;;;6271957;22;20018;-87
2022/12/23 08:33:49;;;;;;;9.20;3.80;;;8.70;99.90;;;;;;6270747;22;20014;-88
2022/12/23 08:36:19;;;;;;;6.47;2.97;;;8.70;99.90;;;;;;6271043;22;20012;-88
2022/12/23 08:38:45;;;;;;;7.10;3.33;;;8.70;99.90;;;;;;6296438;22;20014;-89
2022/12/23 08:41:13;;;;;;;7.22;3.17;;;8.70;99.90;;;;;;6297084;22;20124;-87
2022/12/23 08:43:38;;;;;;;8.75;4.13;;;8.70;99.90;;;;;;6297023;22;20062;-88
2022/12/23 08:46:05;;;;;;;9.27;3.65;;;8.70;99.90;;;;;;6296485;22;20327;-88
2022/12/23 08:48:33;;;;;;;10.32;4.22;;;8.70;99.90;;;;;;6296159;22;20078;-88
2022/12/23 08:51:04;;;;;;;11.13;4.90;;;8.70;99.90;;;;;;6271042;22;20027;-89
2022/12/23 08:53:30;;;;;;;9.88;4.40;;;8.70;99.90;;;;;;6269948;22;20099;-87
2022/12/23 08:56:00;;;;;;;13.07;5.65;;;8.70;99.90;;;;;;6296716;22;20014;-87
2022/12/23 08:58:25;;;;;;;11.95;4.72;;;8.70;99.90;;;;;;6296693;22;20169;-88
2022/12/23 09:00:51;;;;;;;9.95;4.85;;;8.80;99.90;;;;;;6271064;22;20802;-88
2022/12/23 09:03:16;;;;;;;10.38;4.57;;;8.80;99.90;;;;;;6298197;22;20011;-87
2022/12/23 09:05:42;;;;;;;9.52;4.28;;;8.70;99.90;;;;;;6272789;22;20000;-88
2022/12/23 09:08:08;;;;;;;11.30;4.95;;;8.80;99.90;;;;;;6271128;22;20008;-87
2022/12/23 09:10:39;;;;;;;9.98;4.55;;;8.80;99.90;;;;;;6272720;22;20000;-87
2022/12/23 09:13:05;;;;;;;10.98;4.85;;;8.80;99.90;;;;;;6271456;22;20010;-88
2022/12/23 09:15:30;;;;;;;9.70;4.72;;;8.80;99.90;;;;;;6272579;22;20035;-87
2022/12/23 09:17:56;;;;;;;11.57;4.95;;;8.80;99.90;;;;;;6271118;22;20007;-87
2022/12/23 09:20:21;;;;;;;11.45;5.18;;;8.80;99.90;;;;;;6296478;22;19999;-87
2022/12/23 09:22:47;;;;;;;13.82;5.15;;;8.80;99.90;;;;;;6296717;22;20065;-87
2022/12/23 09:25:14;;;;;;;15.23;5.80;;;8.80;99.90;;;;;;6295925;22;20054;-88
2022/12/23 09:27:40;;;;;;;14.00;5.93;;;8.80;99.90;;;;;;6270722;22;20014;-87
2022/12/23 09:30:06;;;;;;;15.18;5.88;;;8.80;99.90;;;;;;6271023;22;20079;-87
2022/12/23 09:32:32;;;;;;;13.82;6.10;;;8.80;99.90;;;;;;6296022;22;20018;-87
2022/12/23 09:34:57;;;;;;;13.18;5.03;;;8.90;99.90;;;;;;6269706;22;20458;-88
2022/12/23 09:37:23;;;;;;;13.52;5.65;;;8.80;99.90;;;;;;6296286;22;20004;-89
2022/12/23 09:39:48;;;;;;;14.02;5.05;;;8.80;99.90;;;;;;6245035;22;20365;-88
2022/12/23 09:42:46;;;;;;;16.02;6.00;;;8.90;99.90;;;;;;6271442;22;20019;-88
2022/12/23 09:45:24;;;;;;;15.10;5.30;;;8.90;99.90;;;;;;6270618;22;20003;-86
2022/12/23 09:47:52;;;;;;;15.95;5.72;;;8.90;99.90;;;;;;6271746;22;20008;-87
2022/12/23 09:50:28;;;;;;;16.38;5.97;;;8.90;99.90;;;;;;6295566;22;20004;-87
2022/12/23 09:53:03;;;;;;;17.98;5.32;;;8.90;99.90;;;;;;6271894;22;20003;-87
2022/12/23 09:55:48;;;;;;;16.55;5.72;;;9.00;99.90;;;;;;6272603;22;20025;-88
2022/12/23 09:58:39;;;;;;;16.90;5.82;;;9.00;99.90;;;;;;6272060;22;20562;-87
2022/12/23 10:01:21;;;;;;;15.18;5.45;;;8.90;99.90;;;;;;6272031;22;20024;-88
2022/12/23 10:04:13;;;;;;;19.08;7.47;;;9.00;99.90;;;;;;6296255;22;20039;-87
2022/12/23 10:06:40;;;;;;;16.52;6.07;;;9.00;99.90;;;;;;6269530;22;20296;-87
2022/12/23 10:09:08;;;;;;;17.95;6.03;;;9.00;99.90;;;;;;6269820;22;20011;-86
2022/12/23 10:11:39;;;;;;;15.27;6.28;;;9.00;99.90;;;;;;6295136;22;20091;-87
2022/12/23 10:14:25;;;;;;;16.20;5.55;;;9.00;99.90;;;;;;6270136;22;20114;-87
2022/12/23 10:17:03;;;;;;;19.55;6.32;;;9.00;99.90;;;;;;6295795;22;20456;-86
2022/12/23 10:19:40;;;;;;;20.30;6.80;;;9.00;99.90;;;;;;6268916;22;20008;-86
2022/12/23 10:22:28;;;;;;;15.43;5.95;;;9.00;99.90;;;;;;6270556;22;20030;-86
2022/12/23 10:24:57;;;;;;;19.70;6.20;;;9.00;99.90;;;;;;6268890;22;20037;-86
2022/12/23 10:27:39;;;;;;;17.33;6.45;;;9.10;99.90;;;;;;6295533;22;20409;-86
2022/12/23 10:30:14;;;;;;;15.63;6.07;;;9.10;99.90;;;;;;6269797;22;20019;-86
2022/12/23 10:32:50;;;;;;;16.38;6.28;;;9.10;99.90;;;;;;6269214;22;20000;-86
2022/12/23 10:35:36;;;;;;;16.23;6.82;;;9.10;99.90;;;;;;6269200;22;20015;-85
2022/12/23 10:38:23;;;;;;;15.20;6.20;;;9.10;99.90;;;;;;6269595;22;20025;-85
2022/12/23 10:41:15;;;;;;;13.43;5.80;;;9.10;99.90;;;;;;6269287;22;20440;-86
2022/12/23 10:43:50;;;;;;;12.20;4.93;;;9.10;99.90;;;;;;6295201;22;20035;-87
2022/12/23 10:47:00;;;;;;;13.85;5.25;;;9.20;99.90;;;;;;6269881;22;20069;-87
2022/12/23 10:49:53;;;;;;;10.80;3.72;;;9.20;99.90;;;;;;6269244;22;20000;-86
2022/12/23 10:52:27;;;;;;;9.85;4.60;;;9.20;99.90;;;;;;6269639;22;20012;-86
2022/12/23 10:54:53;;;;;;;12.05;4.82;;;9.20;99.90;;;;;;6295714;22;20407;-86
2022/12/23 10:57:19;;;;;;;11.68;5.88;;;9.20;99.90;;;;;;6294895;22;20059;-87
2022/12/23 10:59:45;;;;;;;14.13;6.45;;;9.20;99.90;;;;;;6295252;22;20008;-86
2022/12/23 11:02:11;;;;;;;10.40;4.38;;;9.20;99.90;;;;;;6269907;22;20023;-86
2022/12/23 11:04:41;;;;;;;13.02;5.05;;;9.30;99.90;;;;;;6269223;22;20026;-86
2022/12/23 11:07:09;;;;;;;10.95;5.32;;;9.30;99.90;;;;;;6269930;22;20011;-87
2022/12/23 11:09:44;;;;;;;12.48;5.35;;;9.30;99.90;;;;;;6295351;22;20000;-86
2022/12/23 11:12:11;;;;;;;13.18;5.47;;;9.30;99.90;;;;;;6295839;22;20083;-86
2022/12/23 11:14:53;;;;;;;11.52;5.68;;;9.40;99.90;;;;;;6295690;22;20012;-87
2022/12/23 11:17:30;;;;;;;13.02;5.40;;;9.40;99.90;;;;;;6288204;22;20570;-87
2022/12/23 11:20:09;;;;;;;9.10;4.78;;;9.30;99.90;;;;;;6295138;22;20003;-86
2022/12/23 11:22:45;;;;;;;13.23;7.22;;;9.30;99.90;;;;;;6269597;22;20503;-86
2022/12/23 11:25:29;;;;;;;15.10;7.63;;;9.40;99.90;;;;;;6294990;22;20471;-86
2022/12/23 11:28:11;;;;;;;15.00;7.40;;;9.30;99.90;;;;;;6269663;22;20004;-87
2022/12/23 11:30:55;;;;;;;15.35;8.27;;;9.40;99.90;;;;;;6295426;22;20018;-86
2022/12/23 11:33:47;;;;;;;15.10;7.47;;;9.30;99.90;;;;;;6295139;22;20008;-87
2022/12/23 11:36:12;;;;;;;16.75;7.53;;;9.30;99.90;;;;;;6234962;22;20393;-87
2022/12/23 11:39:13;;;;;;;16.15;7.30;;;9.30;99.90;;;;;;6269255;22;20007;-87
2022/12/23 11:41:48;;;;;;;15.18;7.78;;;9.40;99.90;;;;;;6269193;22;20478;-86
2022/12/23 11:44:34;;;;;;;16.50;7.80;;;9.30;99.90;;;;;;6269451;22;20444;-85
2022/12/23 11:47:28;;;;;;;16.15;7.43;;;9.40;99.90;;;;;;6269940;22;20081;-86
2022/12/23 11:50:00;;;;;;;18.15;7.80;;;9.40;99.90;;;;;;6271568;22;20010;-87
2022/12/23 11:52:31;;;;;;;15.07;7.63;;;9.30;99.90;;;;;;6295708;22;20019;-86
2022/12/23 11:55:02;;;;;;;16.05;7.85;;;9.30;99.90;;;;;;6295572;22;20307;-85
2022/12/23 11:57:36;;;;;;;16.95;8.25;;;9.30;99.90;;;;;;6295643;22;20031;-85
2022/12/23 12:00:05;;;;;;;13.70;6.88;;;9.30;99.90;;;;;;6244451;22;20011;-85
2022/12/23 12:02:38;;;;;;;15.63;7.93;;;9.30;99.90;;;;;;6245797;22;20020;-86
2022/12/23 12:05:29;;;;;;;14.48;7.60;;;9.30;99.90;;;;;;6269989;22;20090;-85
2022/12/23 12:08:00;;;;;;;19.02;8.98;;;9.30;99.90;;;;;;6269549;22;20096;-85
2022/12/23 12:10:33;;;;;;;14.50;7.93;;;9.30;99.90;;;;;;6270784;22;20041;-86
2022/12/23 12:13:05;;;;;;;16.25;8.02;;;9.30;99.90;;;;;;6269898;22;20056;-84
2022/12/23 12:15:57;;;;;;;15.50;7.18;;;9.30;99.90;;;;;;6269229;22;20011;-86
2022/12/23 12:18:23;;;;;;;14.07;7.63;;;9.30;99.90;;;;;;6294876;22;20016;-87
2022/12/23 12:21:02;;;;;;;15.40;7.95;;;9.30;99.90;;;;;;6295453;22;20038;-86
2022/12/23 12:23:38;;;;;;;11.70;6.25;;;9.30;99.90;;;;;;6270503;22;20016;-85
2022/12/23 12:26:12;;;;;;;12.38;7.07;;;9.30;99.90;;;;;;6269491;22;20008;-86
2022/12/23 12:28:41;;;;;;;15.50;7.80;;;9.30;99.90;;;;;;6269296;22;20293;-85
2022/12/23 12:31:25;;;;;;;13.48;6.68;;;9.30;99.90;;;;;;6270124;22;20011;-85
2022/12/23 12:34:04;;;;;;;14.63;7.80;;;9.30;99.90;;;;;;6269134;22;20012;-85
2022/12/23 12:36:57;;;;;;;11.93;5.55;;;9.30;99.90;;;;;;6294565;22;20016;-85
2022/12/23 12:39:47;;;;;;;11.93;6.78;;;9.30;99.90;;;;;;6269150;22;20035;-85
2022/12/23 12:42:25;;;;;;;14.80;7.30;;;9.30;99.90;;;;;;6268559;22;20020;-85
2022/12/23 12:45:04;;;;;;;12.15;6.93;;;9.30;99.90;;;;;;6269393;22;20019;-85
2022/12/23 12:47:50;;;;;;;10.75;6.15;;;9.30;99.90;;;;;;6296336;22;20090;-85
2022/12/23 12:50:26;;;;;;;11.43;6.60;;;9.30;99.90;;;;;;6296660;22;20018;-85
2022/12/23 12:52:54;;;;;;;11.52;5.68;;;9.20;99.90;;;;;;6271233;22;20019;-85
2022/12/23 12:55:38;;;;;;;9.60;5.15;;;9.30;99.90;;;;;;6270722;22;20068;-85
2022/12/23 12:58:16;;;;;;;10.60;6.00;;;9.20;99.90;;;;;;6297124;22;20056;-84
2022/12/23 13:00:59;;;;;;;11.55;5.75;;;9.20;99.90;;;;;;6270473;22;20015;-84
2022/12/23 13:04:01;;;;;;;10.43;5.45;;;9.20;99.90;;;;;;6270988;22;20022;-85
2022/12/23 13:06:58;;;;;;;10.43;5.63;;;9.20;99.90;;;;;;6270936;22;20056;-84
2022/12/23 13:09:30;;;;;;;9.52;4.88;;;9.20;99.90;;;;;;6270802;22;20018;-85
2022/12/23 13:12:24;;;;;;;8.38;4.50;;;9.20;99.90;;;;;;6270533;22;20011;-84
2022/12/23 13:14:58;;;;;;;8.02;4.43;;;9.20;99.90;;;;;;6270064;22;20340;-84
2022/12/23 13:17:51;;;;;;;7.22;4.25;;;9.20;99.90;;;;;;6270461;22;20079;-84
2022/12/23 13:20:33;;;;;;;8.15;4.38;;;9.20;99.90;;;;;;6270511;22;20014;-85
2022/12/23 13:23:10;;;;;;;7.53;4.00;;;9.20;99.90;;;;;;6296845;22;20022;-85
2022/12/23 13:25:48;;;;;;;8.93;4.50;;;9.20;99.90;;;;;;6270008;22;20011;-85
2022/12/23 13:28:44;;;;;;;6.68;4.13;;;9.20;99.90;;;;;;6296187;22;20008;-85
2022/12/23 13:31:41;;;;;;;8.23;5.18;;;9.20;99.90;;;;;;6270600;22;20007;-85
2022/12/23 13:34:12;;;;;;;8.52;4.78;;;9.20;99.90;;;;;;6270552;22;20008;-84